sensor_id;sensor_type;location;lat;lon;timestamp;P1;durP1;ratioP1;P2;durP2;ratioP2
4810;SDS011;2419;51.276;6.472;2022-10-31T00:01:00;9.17;;;4.23;;
4810;SDS011;2419;51.276;6.472;2022-10-31T00:03:28;6.87;;;4.50;;
4810;SDS011;2419;51.276;6.472;2022-10-31T00:05:58;8.37;;;3.90;;
4810;SDS011;2419;51.276;6.472;2022-10-31T00:08:27;9.17;;;4.53;;
4810;SDS011;2419;51.276;6.472;2022-10-31T00:10:55;6.47;;;4.57;;
4810;SDS011;2419;51.276;6.472;2022-10-31T00:13:23;7.97;;;4.70;;
4810;SDS011;2419;51.276;6.472;2022-10-31T00:15:51;6.10;;;3.93;;
4810;SDS011;2419;51.276;6.472;2022-10-31T00:18:20;6.57;;;4.53;;
4810;SDS011;2419;51.276;6.472;2022-10-31T00:20:48;6.27;;;4.30;;
4810;SDS011;2419;51.276;6.472;2022-10-31T00:23:17;9.70;;;4.57;;
4810;SDS011;2419;51.276;6.472;2022-10-31T00:25:45;7.00;;;4.47;;
4810;SDS011;2419;51.276;6.472;2022-10-31T00:28:13;5.90;;;3.73;;
4810;SDS011;2419;51.276;6.472;2022-10-31T00:30:41;8.53;;;4.60;;
4810;SDS011;2419;51.276;6.472;2022-10-31T00:33:09;5.70;;;4.20;;
4810;SDS011;2419;51.276;6.472;2022-10-31T00:35:37;7.67;;;4.20;;
4810;SDS011;2419;51.276;6.472;2022-10-31T00:38:05;10.07;;;4.17;;
4810;SDS011;2419;51.276;6.472;2022-10-31T00:40:34;10.37;;;4.77;;
4810;SDS011;2419;51.276;6.472;2022-10-31T00:43:02;8.07;;;4.57;;
4810;SDS011;2419;51.276;6.472;2022-10-31T00:45:30;7.30;;;4.37;;
4810;SDS011;2419;51.276;6.472;2022-10-31T00:47:58;6.40;;;3.70;;
4810;SDS011;2419;51.276;6.472;2022-10-31T00:50:27;7.70;;;4.37;;
4810;SDS011;2419;51.276;6.472;2022-10-31T00:52:57;10.97;;;5.00;;
4810;SDS011;2419;51.276;6.472;2022-10-31T00:55:25;6.83;;;4.90;;
4810;SDS011;2419;51.276;6.472;2022-10-31T00:57:54;6.40;;;4.60;;
4810;SDS011;2419;51.276;6.472;2022-10-31T01:00:24;6.90;;;4.00;;
4810;SDS011;2419;51.276;6.472;2022-10-31T01:02:52;13.63;;;3.70;;
4810;SDS011;2419;51.276;6.472;2022-10-31T01:05:20;11.20;;;5.13;;
4810;SDS011;2419;51.276;6.472;2022-10-31T01:07:48;7.13;;;4.47;;
4810;SDS011;2419;51.276;6.472;2022-10-31T01:10:16;10.30;;;4.37;;
4810;SDS011;2419;51.276;6.472;2022-10-31T01:12:45;6.00;;;4.00;;
4810;SDS011;2419;51.276;6.472;2022-10-31T01:15:17;7.70;;;4.73;;
4810;SDS011;2419;51.276;6.472;2022-10-31T01:17:47;7.03;;;4.40;;
4810;SDS011;2419;51.276;6.472;2022-10-31T01:20:18;7.63;;;4.67;;
4810;SDS011;2419;51.276;6.472;2022-10-31T01:22:46;8.87;;;5.27;;
4810;SDS011;2419;51.276;6.472;2022-10-31T01:25:14;9.37;;;5.37;;
4810;SDS011;2419;51.276;6.472;2022-10-31T01:27:42;5.97;;;3.80;;
4810;SDS011;2419;51.276;6.472;2022-10-31T01:30:11;5.63;;;4.07;;
4810;SDS011;2419;51.276;6.472;2022-10-31T01:32:40;8.90;;;4.33;;
4810;SDS011;2419;51.276;6.472;2022-10-31T01:35:08;9.40;;;4.30;;
4810;SDS011;2419;51.276;6.472;2022-10-31T01:37:36;5.73;;;4.00;;
4810;SDS011;2419;51.276;6.472;2022-10-31T01:40:05;8.40;;;4.47;;
4810;SDS011;2419;51.276;6.472;2022-10-31T01:42:34;10.10;;;5.30;;
4810;SDS011;2419;51.276;6.472;2022-10-31T01:45:03;9.40;;;4.80;;
4810;SDS011;2419;51.276;6.472;2022-10-31T01:47:33;9.27;;;4.30;;
4810;SDS011;2419;51.276;6.472;2022-10-31T01:50:10;4.80;;;3.50;;
4810;SDS011;2419;51.276;6.472;2022-10-31T01:52:42;12.80;;;5.07;;
4810;SDS011;2419;51.276;6.472;2022-10-31T01:55:13;6.70;;;4.20;;
4810;SDS011;2419;51.276;6.472;2022-10-31T01:57:46;7.00;;;4.37;;
4810;SDS011;2419;51.276;6.472;2022-10-31T02:00:17;7.40;;;4.43;;
4810;SDS011;2419;51.276;6.472;2022-10-31T02:02:46;7.77;;;4.10;;
4810;SDS011;2419;51.276;6.472;2022-10-31T02:05:19;6.20;;;3.80;;
4810;SDS011;2419;51.276;6.472;2022-10-31T02:07:51;6.93;;;3.90;;
4810;SDS011;2419;51.276;6.472;2022-10-31T02:10:26;7.20;;;4.23;;
4810;SDS011;2419;51.276;6.472;2022-10-31T02:12:56;4.93;;;4.07;;
4810;SDS011;2419;51.276;6.472;2022-10-31T02:15:27;8.07;;;4.70;;
4810;SDS011;2419;51.276;6.472;2022-10-31T02:17:57;5.87;;;4.33;;
4810;SDS011;2419;51.276;6.472;2022-10-31T02:20:29;9.10;;;4.20;;
4810;SDS011;2419;51.276;6.472;2022-10-31T02:23:12;8.70;;;4.53;;
4810;SDS011;2419;51.276;6.472;2022-10-31T02:29:25;4.93;;;4.03;;
4810;SDS011;2419;51.276;6.472;2022-10-31T02:32:06;6.83;;;4.50;;
4810;SDS011;2419;51.276;6.472;2022-10-31T02:34:42;9.73;;;4.50;;
4810;SDS011;2419;51.276;6.472;2022-10-31T02:37:19;7.00;;;4.00;;
4810;SDS011;2419;51.276;6.472;2022-10-31T02:39:54;6.10;;;4.13;;
4810;SDS011;2419;51.276;6.472;2022-10-31T02:42:51;4.93;;;3.40;;
4810;SDS011;2419;51.276;6.472;2022-10-31T02:45:28;14.30;;;3.80;;
4810;SDS011;2419;51.276;6.472;2022-10-31T02:48:00;6.00;;;3.70;;
4810;SDS011;2419;51.276;6.472;2022-10-31T02:50:34;5.40;;;3.80;;
4810;SDS011;2419;51.276;6.472;2022-10-31T02:53:04;8.13;;;4.67;;
4810;SDS011;2419;51.276;6.472;2022-10-31T02:55:42;13.57;;;4.13;;
4810;SDS011;2419;51.276;6.472;2022-10-31T02:58:17;8.43;;;4.17;;
4810;SDS011;2419;51.276;6.472;2022-10-31T03:00:55;5.70;;;3.60;;
4810;SDS011;2419;51.276;6.472;2022-10-31T03:03:47;2.70;;;2.50;;
4810;SDS011;2419;51.276;6.472;2022-10-31T03:06:26;3.87;;;2.97;;
4810;SDS011;2419;51.276;6.472;2022-10-31T03:09:02;5.90;;;3.70;;
4810;SDS011;2419;51.276;6.472;2022-10-31T03:11:37;6.90;;;3.60;;
4810;SDS011;2419;51.276;6.472;2022-10-31T03:14:11;9.00;;;4.37;;
4810;SDS011;2419;51.276;6.472;2022-10-31T03:16:47;7.63;;;4.70;;
4810;SDS011;2419;51.276;6.472;2022-10-31T03:19:19;4.40;;;3.33;;
4810;SDS011;2419;51.276;6.472;2022-10-31T03:21:53;8.13;;;4.37;;
4810;SDS011;2419;51.276;6.472;2022-10-31T03:24:25;8.17;;;4.17;;
4810;SDS011;2419;51.276;6.472;2022-10-31T03:26:59;7.13;;;3.80;;
4810;SDS011;2419;51.276;6.472;2022-10-31T03:29:30;4.60;;;3.27;;
4810;SDS011;2419;51.276;6.472;2022-10-31T03:32:04;6.03;;;3.60;;
4810;SDS011;2419;51.276;6.472;2022-10-31T03:34:36;5.67;;;3.87;;
4810;SDS011;2419;51.276;6.472;2022-10-31T03:37:07;7.20;;;4.03;;
4810;SDS011;2419;51.276;6.472;2022-10-31T03:39:40;4.20;;;3.40;;
4810;SDS011;2419;51.276;6.472;2022-10-31T03:42:11;6.60;;;3.77;;
4810;SDS011;2419;51.276;6.472;2022-10-31T03:44:42;5.70;;;3.80;;
4810;SDS011;2419;51.276;6.472;2022-10-31T03:47:13;5.20;;;3.80;;
4810;SDS011;2419;51.276;6.472;2022-10-31T03:49:43;6.00;;;3.03;;
4810;SDS011;2419;51.276;6.472;2022-10-31T03:52:13;4.77;;;3.67;;
4810;SDS011;2419;51.276;6.472;2022-10-31T03:54:52;5.57;;;4.10;;
4810;SDS011;2419;51.276;6.472;2022-10-31T03:57:29;6.50;;;3.80;;
4810;SDS011;2419;51.276;6.472;2022-10-31T04:00:05;6.33;;;3.97;;
4810;SDS011;2419;51.276;6.472;2022-10-31T04:02:43;8.73;;;3.63;;
4810;SDS011;2419;51.276;6.472;2022-10-31T04:05:18;6.87;;;3.90;;
4810;SDS011;2419;51.276;6.472;2022-10-31T04:07:50;16.70;;;4.70;;
4810;SDS011;2419;51.276;6.472;2022-10-31T04:10:22;5.30;;;3.60;;
4810;SDS011;2419;51.276;6.472;2022-10-31T04:13:00;8.17;;;4.40;;
4810;SDS011;2419;51.276;6.472;2022-10-31T04:15:38;8.10;;;4.20;;
4810;SDS011;2419;51.276;6.472;2022-10-31T04:18:08;7.77;;;3.90;;
4810;SDS011;2419;51.276;6.472;2022-10-31T04:20:38;5.23;;;3.70;;
4810;SDS011;2419;51.276;6.472;2022-10-31T04:23:12;9.87;;;3.70;;
4810;SDS011;2419;51.276;6.472;2022-10-31T04:25:45;4.50;;;3.63;;
4810;SDS011;2419;51.276;6.472;2022-10-31T04:28:13;7.80;;;3.63;;
4810;SDS011;2419;51.276;6.472;2022-10-31T04:30:42;4.93;;;3.33;;
4810;SDS011;2419;51.276;6.472;2022-10-31T04:33:10;7.30;;;3.60;;
4810;SDS011;2419;51.276;6.472;2022-10-31T04:35:39;5.47;;;4.23;;
4810;SDS011;2419;51.276;6.472;2022-10-31T04:38:09;4.93;;;3.60;;
4810;SDS011;2419;51.276;6.472;2022-10-31T04:40:38;7.60;;;3.90;;
4810;SDS011;2419;51.276;6.472;2022-10-31T04:43:38;7.57;;;5.10;;
4810;SDS011;2419;51.276;6.472;2022-10-31T04:46:06;7.50;;;4.00;;
4810;SDS011;2419;51.276;6.472;2022-10-31T04:48:34;5.93;;;3.80;;
4810;SDS011;2419;51.276;6.472;2022-10-31T04:51:06;9.03;;;4.67;;
4810;SDS011;2419;51.276;6.472;2022-10-31T04:53:34;5.53;;;3.87;;
4810;SDS011;2419;51.276;6.472;2022-10-31T04:56:20;5.60;;;4.30;;
4810;SDS011;2419;51.276;6.472;2022-10-31T04:58:54;6.63;;;4.00;;
4810;SDS011;2419;51.276;6.472;2022-10-31T05:01:24;5.40;;;3.60;;
4810;SDS011;2419;51.276;6.472;2022-10-31T05:03:53;6.80;;;4.17;;
4810;SDS011;2419;51.276;6.472;2022-10-31T05:06:23;7.07;;;3.30;;
4810;SDS011;2419;51.276;6.472;2022-10-31T05:08:51;5.73;;;3.00;;
4810;SDS011;2419;51.276;6.472;2022-10-31T05:11:19;5.43;;;4.07;;
4810;SDS011;2419;51.276;6.472;2022-10-31T05:13:47;8.10;;;4.07;;
4810;SDS011;2419;51.276;6.472;2022-10-31T05:16:35;4.13;;;3.20;;
4810;SDS011;2419;51.276;6.472;2022-10-31T05:19:26;3.47;;;3.10;;
4810;SDS011;2419;51.276;6.472;2022-10-31T05:22:14;6.20;;;3.60;;
4810;SDS011;2419;51.276;6.472;2022-10-31T05:24:42;8.03;;;4.17;;
4810;SDS011;2419;51.276;6.472;2022-10-31T05:27:11;8.20;;;3.93;;
4810;SDS011;2419;51.276;6.472;2022-10-31T05:29:39;8.63;;;4.23;;
4810;SDS011;2419;51.276;6.472;2022-10-31T05:32:07;6.27;;;3.60;;
4810;SDS011;2419;51.276;6.472;2022-10-31T05:34:54;7.37;;;3.57;;
4810;SDS011;2419;51.276;6.472;2022-10-31T05:37:41;7.43;;;4.00;;
4810;SDS011;2419;51.276;6.472;2022-10-31T05:40:11;12.57;;;4.23;;
4810;SDS011;2419;51.276;6.472;2022-10-31T05:42:42;7.43;;;4.40;;
4810;SDS011;2419;51.276;6.472;2022-10-31T05:45:13;7.77;;;3.83;;
4810;SDS011;2419;51.276;6.472;2022-10-31T05:47:52;6.73;;;3.80;;
4810;SDS011;2419;51.276;6.472;2022-10-31T05:50:55;9.30;;;4.60;;
4810;SDS011;2419;51.276;6.472;2022-10-31T05:53:25;7.03;;;3.60;;
4810;SDS011;2419;51.276;6.472;2022-10-31T05:55:54;5.83;;;4.10;;
4810;SDS011;2419;51.276;6.472;2022-10-31T05:58:22;6.03;;;4.00;;
4810;SDS011;2419;51.276;6.472;2022-10-31T06:01:03;7.13;;;3.73;;
4810;SDS011;2419;51.276;6.472;2022-10-31T06:03:32;6.40;;;4.80;;
4810;SDS011;2419;51.276;6.472;2022-10-31T06:06:02;10.70;;;4.33;;
4810;SDS011;2419;51.276;6.472;2022-10-31T06:08:41;8.40;;;3.93;;
4810;SDS011;2419;51.276;6.472;2022-10-31T06:11:14;6.53;;;3.60;;
4810;SDS011;2419;51.276;6.472;2022-10-31T06:14:00;5.27;;;3.37;;
4810;SDS011;2419;51.276;6.472;2022-10-31T06:16:35;7.47;;;3.90;;
4810;SDS011;2419;51.276;6.472;2022-10-31T06:19:26;9.00;;;4.30;;
4810;SDS011;2419;51.276;6.472;2022-10-31T06:21:54;6.70;;;3.00;;
4810;SDS011;2419;51.276;6.472;2022-10-31T06:24:23;4.87;;;3.53;;
4810;SDS011;2419;51.276;6.472;2022-10-31T06:26:51;7.17;;;5.00;;
4810;SDS011;2419;51.276;6.472;2022-10-31T06:29:20;7.40;;;4.17;;
4810;SDS011;2419;51.276;6.472;2022-10-31T06:32:00;9.43;;;4.40;;
4810;SDS011;2419;51.276;6.472;2022-10-31T06:34:30;6.60;;;3.87;;
4810;SDS011;2419;51.276;6.472;2022-10-31T06:36:58;5.17;;;3.33;;
4810;SDS011;2419;51.276;6.472;2022-10-31T06:39:28;6.03;;;3.60;;
4810;SDS011;2419;51.276;6.472;2022-10-31T06:41:56;7.30;;;3.70;;
4810;SDS011;2419;51.276;6.472;2022-10-31T06:44:25;11.73;;;4.70;;
4810;SDS011;2419;51.276;6.472;2022-10-31T06:46:54;5.63;;;3.60;;
4810;SDS011;2419;51.276;6.472;2022-10-31T06:49:50;6.70;;;3.40;;
4810;SDS011;2419;51.276;6.472;2022-10-31T06:52:21;5.23;;;3.30;;
4810;SDS011;2419;51.276;6.472;2022-10-31T06:54:52;8.93;;;4.33;;
4810;SDS011;2419;51.276;6.472;2022-10-31T06:57:21;6.27;;;4.20;;
4810;SDS011;2419;51.276;6.472;2022-10-31T06:59:54;8.50;;;4.23;;
4810;SDS011;2419;51.276;6.472;2022-10-31T07:02:55;8.27;;;3.60;;
4810;SDS011;2419;51.276;6.472;2022-10-31T07:05:23;8.00;;;3.27;;
4810;SDS011;2419;51.276;6.472;2022-10-31T07:07:53;5.00;;;3.63;;
4810;SDS011;2419;51.276;6.472;2022-10-31T07:10:23;8.00;;;4.00;;
4810;SDS011;2419;51.276;6.472;2022-10-31T07:12:59;6.93;;;3.30;;
4810;SDS011;2419;51.276;6.472;2022-10-31T07:15:32;7.33;;;3.70;;
4810;SDS011;2419;51.276;6.472;2022-10-31T07:18:03;6.77;;;3.83;;
4810;SDS011;2419;51.276;6.472;2022-10-31T07:20:33;7.10;;;4.17;;
4810;SDS011;2419;51.276;6.472;2022-10-31T07:23:01;5.97;;;3.70;;
4810;SDS011;2419;51.276;6.472;2022-10-31T07:25:32;5.57;;;3.27;;
4810;SDS011;2419;51.276;6.472;2022-10-31T07:28:00;7.00;;;3.40;;
4810;SDS011;2419;51.276;6.472;2022-10-31T07:30:29;4.90;;;3.80;;
4810;SDS011;2419;51.276;6.472;2022-10-31T07:32:57;8.00;;;3.47;;
4810;SDS011;2419;51.276;6.472;2022-10-31T07:35:45;17.80;;;4.97;;
4810;SDS011;2419;51.276;6.472;2022-10-31T07:38:17;6.20;;;3.67;;
4810;SDS011;2419;51.276;6.472;2022-10-31T07:40:49;7.13;;;4.17;;
4810;SDS011;2419;51.276;6.472;2022-10-31T07:43:18;6.20;;;3.60;;
4810;SDS011;2419;51.276;6.472;2022-10-31T07:46:11;4.80;;;3.30;;
4810;SDS011;2419;51.276;6.472;2022-10-31T07:48:57;7.53;;;3.70;;
4810;SDS011;2419;51.276;6.472;2022-10-31T07:52:04;8.60;;;3.30;;
4810;SDS011;2419;51.276;6.472;2022-10-31T07:54:50;3.33;;;2.60;;
4810;SDS011;2419;51.276;6.472;2022-10-31T07:57:23;7.70;;;5.00;;
4810;SDS011;2419;51.276;6.472;2022-10-31T07:59:56;6.03;;;3.50;;
4810;SDS011;2419;51.276;6.472;2022-10-31T08:02:24;4.70;;;3.13;;
4810;SDS011;2419;51.276;6.472;2022-10-31T08:05:11;4.73;;;3.17;;
4810;SDS011;2419;51.276;6.472;2022-10-31T08:08:11;3.93;;;3.20;;
4810;SDS011;2419;51.276;6.472;2022-10-31T08:10:40;6.37;;;3.63;;
4810;SDS011;2419;51.276;6.472;2022-10-31T08:13:10;6.27;;;3.87;;
4810;SDS011;2419;51.276;6.472;2022-10-31T08:15:43;7.80;;;3.40;;
4810;SDS011;2419;51.276;6.472;2022-10-31T08:18:16;8.37;;;3.37;;
4810;SDS011;2419;51.276;6.472;2022-10-31T08:20:44;7.63;;;3.33;;
4810;SDS011;2419;51.276;6.472;2022-10-31T08:23:13;6.10;;;3.67;;
4810;SDS011;2419;51.276;6.472;2022-10-31T08:25:43;8.70;;;3.57;;
4810;SDS011;2419;51.276;6.472;2022-10-31T08:28:14;5.73;;;3.57;;
4810;SDS011;2419;51.276;6.472;2022-10-31T08:30:44;10.33;;;3.63;;
4810;SDS011;2419;51.276;6.472;2022-10-31T08:33:39;5.20;;;3.00;;
4810;SDS011;2419;51.276;6.472;2022-10-31T08:36:28;5.47;;;3.60;;
4810;SDS011;2419;51.276;6.472;2022-10-31T08:39:09;6.80;;;3.80;;
4810;SDS011;2419;51.276;6.472;2022-10-31T08:41:38;4.00;;;3.47;;
4810;SDS011;2419;51.276;6.472;2022-10-31T08:44:11;4.50;;;3.47;;
4810;SDS011;2419;51.276;6.472;2022-10-31T08:46:39;5.77;;;3.63;;
4810;SDS011;2419;51.276;6.472;2022-10-31T08:49:07;14.53;;;3.63;;
4810;SDS011;2419;51.276;6.472;2022-10-31T08:51:35;5.47;;;3.17;;
4810;SDS011;2419;51.276;6.472;2022-10-31T08:54:04;5.00;;;3.40;;
4810;SDS011;2419;51.276;6.472;2022-10-31T08:56:32;5.30;;;3.40;;
4810;SDS011;2419;51.276;6.472;2022-10-31T08:59:03;9.57;;;3.47;;
4810;SDS011;2419;51.276;6.472;2022-10-31T09:01:51;7.53;;;3.50;;
4810;SDS011;2419;51.276;6.472;2022-10-31T09:04:19;6.23;;;3.23;;
4810;SDS011;2419;51.276;6.472;2022-10-31T09:06:47;6.93;;;3.70;;
4810;SDS011;2419;51.276;6.472;2022-10-31T09:09:36;6.10;;;3.73;;
4810;SDS011;2419;51.276;6.472;2022-10-31T09:12:05;6.30;;;4.00;;
4810;SDS011;2419;51.276;6.472;2022-10-31T09:14:51;6.57;;;4.23;;
4810;SDS011;2419;51.276;6.472;2022-10-31T09:17:29;6.70;;;4.20;;
4810;SDS011;2419;51.276;6.472;2022-10-31T09:20:26;4.83;;;3.10;;
4810;SDS011;2419;51.276;6.472;2022-10-31T09:22:55;8.60;;;3.80;;
4810;SDS011;2419;51.276;6.472;2022-10-31T09:25:24;7.53;;;4.23;;
4810;SDS011;2419;51.276;6.472;2022-10-31T09:28:13;9.00;;;4.00;;
4810;SDS011;2419;51.276;6.472;2022-10-31T09:30:45;7.67;;;3.63;;
4810;SDS011;2419;51.276;6.472;2022-10-31T09:33:22;14.03;;;3.50;;
4810;SDS011;2419;51.276;6.472;2022-10-31T09:36:10;6.70;;;3.80;;
4810;SDS011;2419;51.276;6.472;2022-10-31T09:38:39;6.40;;;3.80;;
4810;SDS011;2419;51.276;6.472;2022-10-31T09:41:08;7.60;;;3.97;;
4810;SDS011;2419;51.276;6.472;2022-10-31T09:43:53;5.33;;;4.30;;
4810;SDS011;2419;51.276;6.472;2022-10-31T09:46:29;6.10;;;4.30;;
4810;SDS011;2419;51.276;6.472;2022-10-31T09:49:12;5.30;;;3.07;;
4810;SDS011;2419;51.276;6.472;2022-10-31T09:51:51;11.00;;;3.90;;
4810;SDS011;2419;51.276;6.472;2022-10-31T09:54:33;5.20;;;3.57;;
4810;SDS011;2419;51.276;6.472;2022-10-31T09:57:07;5.87;;;4.37;;
4810;SDS011;2419;51.276;6.472;2022-10-31T09:59:43;5.13;;;3.17;;
4810;SDS011;2419;51.276;6.472;2022-10-31T10:02:15;6.17;;;3.30;;
4810;SDS011;2419;51.276;6.472;2022-10-31T10:04:51;7.77;;;3.77;;
4810;SDS011;2419;51.276;6.472;2022-10-31T10:07:27;6.30;;;3.60;;
4810;SDS011;2419;51.276;6.472;2022-10-31T10:10:24;6.63;;;4.07;;
4810;SDS011;2419;51.276;6.472;2022-10-31T10:13:35;6.23;;;3.83;;
4810;SDS011;2419;51.276;6.472;2022-10-31T10:16:23;7.87;;;3.73;;
4810;SDS011;2419;51.276;6.472;2022-10-31T10:19:07;7.10;;;4.20;;
4810;SDS011;2419;51.276;6.472;2022-10-31T10:21:47;6.23;;;4.10;;
4810;SDS011;2419;51.276;6.472;2022-10-31T10:24:23;6.23;;;4.13;;
4810;SDS011;2419;51.276;6.472;2022-10-31T10:26:59;8.53;;;4.80;;
4810;SDS011;2419;51.276;6.472;2022-10-31T10:29:34;7.93;;;4.90;;
4810;SDS011;2419;51.276;6.472;2022-10-31T10:32:09;9.53;;;5.47;;
4810;SDS011;2419;51.276;6.472;2022-10-31T10:34:43;11.30;;;6.03;;
4810;SDS011;2419;51.276;6.472;2022-10-31T10:37:22;10.20;;;5.40;;
4810;SDS011;2419;51.276;6.472;2022-10-31T10:39:56;10.97;;;4.50;;
4810;SDS011;2419;51.276;6.472;2022-10-31T10:42:28;10.10;;;5.07;;
4810;SDS011;2419;51.276;6.472;2022-10-31T10:45:15;8.93;;;4.60;;
4810;SDS011;2419;51.276;6.472;2022-10-31T10:48:05;10.90;;;5.57;;
4810;SDS011;2419;51.276;6.472;2022-10-31T10:50:39;11.00;;;4.93;;
4810;SDS011;2419;51.276;6.472;2022-10-31T10:53:16;7.53;;;4.33;;
4810;SDS011;2419;51.276;6.472;2022-10-31T10:56:04;10.50;;;4.27;;
4810;SDS011;2419;51.276;6.472;2022-10-31T10:58:42;8.03;;;4.10;;
4810;SDS011;2419;51.276;6.472;2022-10-31T11:01:11;6.87;;;4.60;;
4810;SDS011;2419;51.276;6.472;2022-10-31T11:03:45;7.07;;;4.53;;
4810;SDS011;2419;51.276;6.472;2022-10-31T11:06:17;9.80;;;4.33;;
4810;SDS011;2419;51.276;6.472;2022-10-31T11:08:49;5.07;;;3.53;;
4810;SDS011;2419;51.276;6.472;2022-10-31T11:11:21;13.43;;;4.63;;
4810;SDS011;2419;51.276;6.472;2022-10-31T11:13:55;9.20;;;4.63;;
4810;SDS011;2419;51.276;6.472;2022-10-31T11:16:28;6.97;;;4.30;;
4810;SDS011;2419;51.276;6.472;2022-10-31T11:19:06;7.47;;;4.73;;
4810;SDS011;2419;51.276;6.472;2022-10-31T11:21:42;10.70;;;4.47;;
4810;SDS011;2419;51.276;6.472;2022-10-31T11:24:21;7.27;;;4.20;;
4810;SDS011;2419;51.276;6.472;2022-10-31T11:27:02;6.63;;;4.43;;
4810;SDS011;2419;51.276;6.472;2022-10-31T11:29:36;10.40;;;5.27;;
4810;SDS011;2419;51.276;6.472;2022-10-31T11:32:04;8.10;;;5.30;;
4810;SDS011;2419;51.276;6.472;2022-10-31T11:34:34;8.03;;;4.30;;
4810;SDS011;2419;51.276;6.472;2022-10-31T11:37:04;6.57;;;4.20;;
4810;SDS011;2419;51.276;6.472;2022-10-31T11:39:41;5.80;;;3.90;;
4810;SDS011;2419;51.276;6.472;2022-10-31T11:42:11;9.03;;;4.90;;
4810;SDS011;2419;51.276;6.472;2022-10-31T11:44:41;8.80;;;4.13;;
4810;SDS011;2419;51.276;6.472;2022-10-31T11:47:12;10.90;;;5.00;;
4810;SDS011;2419;51.276;6.472;2022-10-31T11:49:42;8.20;;;4.03;;
4810;SDS011;2419;51.276;6.472;2022-10-31T11:52:16;6.23;;;3.60;;
4810;SDS011;2419;51.276;6.472;2022-10-31T11:54:49;6.00;;;4.00;;
4810;SDS011;2419;51.276;6.472;2022-10-31T11:57:24;9.27;;;4.67;;
4810;SDS011;2419;51.276;6.472;2022-10-31T11:59:55;5.37;;;3.60;;
4810;SDS011;2419;51.276;6.472;2022-10-31T12:02:24;5.07;;;3.73;;
4810;SDS011;2419;51.276;6.472;2022-10-31T12:04:58;7.60;;;4.20;;
4810;SDS011;2419;51.276;6.472;2022-10-31T12:07:30;8.73;;;3.50;;
4810;SDS011;2419;51.276;6.472;2022-10-31T12:09:59;7.10;;;3.80;;
4810;SDS011;2419;51.276;6.472;2022-10-31T12:12:35;8.30;;;3.97;;
4810;SDS011;2419;51.276;6.472;2022-10-31T12:15:29;7.13;;;3.27;;
4810;SDS011;2419;51.276;6.472;2022-10-31T12:18:06;9.27;;;3.93;;
4810;SDS011;2419;51.276;6.472;2022-10-31T12:20:59;6.60;;;3.23;;
4810;SDS011;2419;51.276;6.472;2022-10-31T12:23:51;7.80;;;3.87;;
4810;SDS011;2419;51.276;6.472;2022-10-31T12:26:32;8.30;;;3.50;;
4810;SDS011;2419;51.276;6.472;2022-10-31T12:29:09;9.03;;;3.20;;
4810;SDS011;2419;51.276;6.472;2022-10-31T12:31:53;5.00;;;3.60;;
4810;SDS011;2419;51.276;6.472;2022-10-31T12:34:38;4.90;;;3.60;;
4810;SDS011;2419;51.276;6.472;2022-10-31T12:37:23;7.17;;;3.23;;
4810;SDS011;2419;51.276;6.472;2022-10-31T12:40:04;6.03;;;3.27;;
4810;SDS011;2419;51.276;6.472;2022-10-31T12:42:49;7.40;;;2.67;;
4810;SDS011;2419;51.276;6.472;2022-10-31T12:45:35;3.87;;;3.07;;
4810;SDS011;2419;51.276;6.472;2022-10-31T12:48:15;5.03;;;2.90;;
4810;SDS011;2419;51.276;6.472;2022-10-31T12:50:52;4.13;;;2.87;;
4810;SDS011;2419;51.276;6.472;2022-10-31T12:53:31;8.13;;;3.07;;
4810;SDS011;2419;51.276;6.472;2022-10-31T12:56:13;4.33;;;2.93;;
4810;SDS011;2419;51.276;6.472;2022-10-31T12:58:52;3.87;;;2.53;;
4810;SDS011;2419;51.276;6.472;2022-10-31T13:01:26;9.13;;;2.40;;
4810;SDS011;2419;51.276;6.472;2022-10-31T13:03:58;3.67;;;2.40;;
4810;SDS011;2419;51.276;6.472;2022-10-31T13:06:32;3.63;;;2.50;;
4810;SDS011;2419;51.276;6.472;2022-10-31T13:09:11;4.30;;;2.57;;
4810;SDS011;2419;51.276;6.472;2022-10-31T13:11:45;3.73;;;2.50;;
4810;SDS011;2419;51.276;6.472;2022-10-31T13:14:18;6.07;;;2.60;;
4810;SDS011;2419;51.276;6.472;2022-10-31T13:16:52;4.90;;;2.23;;
4810;SDS011;2419;51.276;6.472;2022-10-31T13:19:24;3.20;;;2.10;;
4810;SDS011;2419;51.276;6.472;2022-10-31T13:21:57;3.40;;;2.00;;
4810;SDS011;2419;51.276;6.472;2022-10-31T13:24:35;5.10;;;2.20;;
4810;SDS011;2419;51.276;6.472;2022-10-31T13:27:10;2.60;;;2.40;;
4810;SDS011;2419;51.276;6.472;2022-10-31T13:29:44;5.07;;;2.50;;
4810;SDS011;2419;51.276;6.472;2022-10-31T13:32:21;8.77;;;2.03;;
4810;SDS011;2419;51.276;6.472;2022-10-31T13:34:50;3.03;;;2.00;;
4810;SDS011;2419;51.276;6.472;2022-10-31T13:37:23;4.47;;;2.60;;
4810;SDS011;2419;51.276;6.472;2022-10-31T13:40:12;4.00;;;2.20;;
4810;SDS011;2419;51.276;6.472;2022-10-31T13:42:52;4.57;;;2.00;;
4810;SDS011;2419;51.276;6.472;2022-10-31T13:45:28;2.80;;;2.37;;
4810;SDS011;2419;51.276;6.472;2022-10-31T13:47:59;3.70;;;2.13;;
4810;SDS011;2419;51.276;6.472;2022-10-31T13:50:29;7.23;;;1.70;;
4810;SDS011;2419;51.276;6.472;2022-10-31T13:53:12;3.87;;;2.10;;
4810;SDS011;2419;51.276;6.472;2022-10-31T13:55:42;3.83;;;2.00;;
4810;SDS011;2419;51.276;6.472;2022-10-31T13:58:19;3.80;;;2.40;;
4810;SDS011;2419;51.276;6.472;2022-10-31T14:01:02;3.80;;;2.33;;
4810;SDS011;2419;51.276;6.472;2022-10-31T14:03:40;4.57;;;2.50;;
4810;SDS011;2419;51.276;6.472;2022-10-31T14:06:37;4.53;;;2.60;;
4810;SDS011;2419;51.276;6.472;2022-10-31T14:09:18;2.73;;;2.10;;
4810;SDS011;2419;51.276;6.472;2022-10-31T14:11:49;6.00;;;2.77;;
4810;SDS011;2419;51.276;6.472;2022-10-31T14:14:18;4.27;;;2.10;;
4810;SDS011;2419;51.276;6.472;2022-10-31T14:16:52;3.00;;;2.07;;
4810;SDS011;2419;51.276;6.472;2022-10-31T14:19:23;3.60;;;2.23;;
4810;SDS011;2419;51.276;6.472;2022-10-31T14:21:53;4.83;;;2.07;;
4810;SDS011;2419;51.276;6.472;2022-10-31T14:24:31;1.83;;;1.70;;
4810;SDS011;2419;51.276;6.472;2022-10-31T14:27:02;5.00;;;2.60;;
4810;SDS011;2419;51.276;6.472;2022-10-31T14:29:33;3.40;;;2.37;;
4810;SDS011;2419;51.276;6.472;2022-10-31T14:32:05;3.40;;;2.10;;
4810;SDS011;2419;51.276;6.472;2022-10-31T14:34:42;3.97;;;2.37;;
4810;SDS011;2419;51.276;6.472;2022-10-31T14:37:25;3.97;;;2.30;;
4810;SDS011;2419;51.276;6.472;2022-10-31T14:40:16;2.70;;;1.70;;
4810;SDS011;2419;51.276;6.472;2022-10-31T14:46:03;1.63;;;1.50;;
4810;SDS011;2419;51.276;6.472;2022-10-31T14:48:50;5.77;;;1.77;;
4810;SDS011;2419;51.276;6.472;2022-10-31T14:51:31;4.83;;;2.07;;
4810;SDS011;2419;51.276;6.472;2022-10-31T14:54:02;4.63;;;1.90;;
4810;SDS011;2419;51.276;6.472;2022-10-31T14:56:34;3.07;;;1.83;;
4810;SDS011;2419;51.276;6.472;2022-10-31T14:59:05;2.50;;;1.67;;
4810;SDS011;2419;51.276;6.472;2022-10-31T15:01:36;7.17;;;2.53;;
4810;SDS011;2419;51.276;6.472;2022-10-31T15:04:09;2.40;;;1.83;;
4810;SDS011;2419;51.276;6.472;2022-10-31T15:06:51;2.43;;;1.83;;
4810;SDS011;2419;51.276;6.472;2022-10-31T15:09:23;4.53;;;2.43;;
4810;SDS011;2419;51.276;6.472;2022-10-31T15:11:52;2.47;;;2.27;;
4810;SDS011;2419;51.276;6.472;2022-10-31T15:14:22;2.23;;;1.77;;
4810;SDS011;2419;51.276;6.472;2022-10-31T15:16:51;2.87;;;2.00;;
4810;SDS011;2419;51.276;6.472;2022-10-31T15:19:23;2.50;;;1.70;;
4810;SDS011;2419;51.276;6.472;2022-10-31T15:21:52;2.03;;;1.73;;
4810;SDS011;2419;51.276;6.472;2022-10-31T15:24:22;2.03;;;1.53;;
4810;SDS011;2419;51.276;6.472;2022-10-31T15:26:52;3.53;;;1.60;;
4810;SDS011;2419;51.276;6.472;2022-10-31T15:29:27;4.63;;;2.47;;
4810;SDS011;2419;51.276;6.472;2022-10-31T15:31:56;3.17;;;2.00;;
4810;SDS011;2419;51.276;6.472;2022-10-31T15:34:27;3.03;;;2.00;;
4810;SDS011;2419;51.276;6.472;2022-10-31T15:37:01;2.23;;;1.53;;
4810;SDS011;2419;51.276;6.472;2022-10-31T15:39:29;4.30;;;1.80;;
4810;SDS011;2419;51.276;6.472;2022-10-31T15:41:57;2.83;;;1.63;;
4810;SDS011;2419;51.276;6.472;2022-10-31T15:44:28;2.50;;;1.77;;
4810;SDS011;2419;51.276;6.472;2022-10-31T15:46:58;5.50;;;2.20;;
4810;SDS011;2419;51.276;6.472;2022-10-31T15:49:32;1.50;;;1.40;;
4810;SDS011;2419;51.276;6.472;2022-10-31T15:52:09;2.80;;;2.20;;
4810;SDS011;2419;51.276;6.472;2022-10-31T15:54:47;2.50;;;2.00;;
4810;SDS011;2419;51.276;6.472;2022-10-31T15:57:18;3.40;;;2.47;;
4810;SDS011;2419;51.276;6.472;2022-10-31T16:02:49;2.70;;;1.40;;
4810;SDS011;2419;51.276;6.472;2022-10-31T16:05:19;6.90;;;2.10;;
4810;SDS011;2419;51.276;6.472;2022-10-31T16:07:50;2.70;;;2.20;;
4810;SDS011;2419;51.276;6.472;2022-10-31T16:10:22;2.37;;;1.60;;